createdAt,value
2023-04-02T00:00:07.664Z,95773.59
2023-04-02T00:02:34.196Z,95780.41
2023-04-02T00:05:01.782Z,95778.34
2023-04-02T00:07:28.621Z,95774.13
2023-04-02T00:09:55.223Z,95783.81
2023-04-02T00:12:22.080Z,95778.22
2023-04-02T00:14:48.933Z,95789.88
2023-04-02T00:17:18.018Z,95789.25
2023-04-02T00:19:44.919Z,95785.94
2023-04-02T00:22:11.446Z,95775.78
2023-04-02T00:24:38.044Z,95770.78
2023-04-02T00:27:04.714Z,95773.53
2023-04-02T00:29:32.269Z,95772.84
2023-04-02T00:31:58.824Z,95769.88
2023-04-02T00:34:25.697Z,95775.03
2023-04-02T00:36:52.417Z,95777.72
2023-04-02T00:39:19.011Z,95781.69
2023-04-02T00:41:45.509Z,95781.81
2023-04-02T00:44:12.290Z,95775.84
2023-04-02T00:46:38.870Z,95779.34
2023-04-02T00:49:05.334Z,95778.53
2023-04-02T00:51:31.902Z,95780.16
2023-04-02T00:53:58.511Z,95779.50
2023-04-02T00:56:25.276Z,95784.94
2023-04-02T00:58:51.822Z,95773.63
2023-04-02T01:01:18.450Z,95778.88
2023-04-02T01:03:45.191Z,95773.13
2023-04-02T01:06:11.995Z,95780.59
2023-04-02T01:08:38.836Z,95779.59
2023-04-02T01:11:06.691Z,95789.88
2023-04-02T01:13:33.321Z,95787.59
2023-04-02T01:16:00.160Z,95796.47
2023-04-02T01:18:26.842Z,95794.00
2023-04-02T01:20:53.412Z,95797.44
2023-04-02T01:23:20.197Z,95789.22
2023-04-02T01:25:46.784Z,95787.91
2023-04-02T01:28:13.297Z,95796.69
2023-04-02T01:30:40.116Z,95798.66
2023-04-02T01:33:06.736Z,95792.66
2023-04-02T01:35:33.581Z,95787.06
2023-04-02T01:38:00.390Z,95788.59
2023-04-02T01:40:26.918Z,95790.31
2023-04-02T01:42:58.313Z,95798.47
2023-04-02T01:45:24.985Z,95792.50
2023-04-02T01:47:51.758Z,95802.81
2023-04-02T01:50:19.792Z,95797.66
2023-04-02T01:52:46.506Z,95801.81
2023-04-02T01:55:13.056Z,95792.47
2023-04-02T01:57:40.649Z,95801.56
2023-04-02T02:00:07.649Z,95794.06
2023-04-02T02:02:34.655Z,95784.59
2023-04-02T02:05:01.299Z,95794.28
2023-04-02T02:07:28.153Z,95801.69
2023-04-02T02:09:54.686Z,95803.03
2023-04-02T02:12:21.197Z,95819.63
2023-04-02T02:14:47.929Z,95806.97
2023-04-02T02:17:14.753Z,95809.00
2023-04-02T02:19:41.216Z,95813.25
2023-04-02T02:22:07.731Z,95818.25
2023-04-02T02:24:34.286Z,95813.19
2023-04-02T02:27:00.828Z,95820.16
2023-04-02T02:29:29.419Z,95823.75
2023-04-02T02:31:56.833Z,95834.81
2023-04-02T02:34:23.332Z,95835.84
2023-04-02T02:36:49.833Z,95831.81
2023-04-02T02:39:17.390Z,95826.03
2023-04-02T02:41:43.983Z,95834.59
2023-04-02T02:44:10.443Z,95833.41
2023-04-02T02:46:37.223Z,95836.75
2023-04-02T02:49:03.857Z,95821.81
2023-04-02T02:51:30.670Z,95825.44
2023-04-02T02:53:57.241Z,95824.88
2023-04-02T02:56:24.049Z,95822.91
2023-04-02T02:58:50.858Z,95825.28
2023-04-02T03:01:17.425Z,95828.66
2023-04-02T03:03:44.247Z,95826.56
2023-04-02T03:06:10.973Z,95831.09
2023-04-02T03:08:37.844Z,95825.50
2023-04-02T03:11:04.455Z,95828.44
2023-04-02T03:13:30.982Z,95826.75
2023-04-02T03:15:57.511Z,95833.44
2023-04-02T03:18:24.133Z,95831.47
2023-04-02T03:20:51.890Z,95839.41
2023-04-02T03:23:19.304Z,95840.03
2023-04-02T03:25:46.984Z,95837.59
2023-04-02T03:28:13.561Z,95826.97
2023-04-02T03:30:40.434Z,95833.69
2023-04-02T03:33:07.452Z,95834.50
2023-04-02T03:35:34.235Z,95840.16
2023-04-02T03:38:01.334Z,95839.41
2023-04-02T03:40:27.819Z,95842.78
2023-04-02T03:42:54.351Z,95844.09
2023-04-02T03:45:21.210Z,95843.44
2023-04-02T03:47:47.780Z,95846.88
2023-04-02T03:50:14.281Z,95848.66
2023-04-02T03:52:41.096Z,95854.13
2023-04-02T03:55:07.720Z,95845.59
2023-04-02T03:57:34.402Z,95847.78
2023-04-02T04:00:01.125Z,95847.66
2023-04-02T04:02:28.510Z,95851.88
2023-04-02T04:04:55.171Z,95851.53
2023-04-02T04:07:22.525Z,95855.25
2023-04-02T04:09:49.815Z,95852.97
2023-04-02T04:12:19.494Z,95847.22
2023-04-02T04:14:46.100Z,95847.94
2023-04-02T04:17:12.683Z,95849.56
2023-04-02T04:19:39.233Z,95856.94
2023-04-02T04:22:05.844Z,95855.53
2023-04-02T04:24:32.358Z,95855.13
2023-04-02T04:26:59.170Z,95862.00
2023-04-02T04:29:25.633Z,95859.31
2023-04-02T04:31:52.752Z,95863.06
2023-04-02T04:34:19.302Z,95859.03
2023-04-02T04:36:45.957Z,95871.22
2023-04-02T04:39:12.716Z,95860.63
2023-04-02T04:41:40.096Z,95860.13
2023-04-02T04:44:07.464Z,95863.56
2023-04-02T04:46:35.247Z,95871.38
2023-04-02T04:49:02.142Z,95870.47
2023-04-02T04:51:28.894Z,95875.19
2023-04-02T04:53:57.201Z,95874.88
2023-04-02T04:56:23.711Z,95872.94
2023-04-02T04:58:50.591Z,95883.72
2023-04-02T05:01:18.164Z,95881.09
2023-04-02T05:03:44.876Z,95878.94
2023-04-02T05:06:11.419Z,95888.63
2023-04-02T05:08:38.001Z,95879.09
2023-04-02T05:11:04.649Z,95879.28
2023-04-02T05:13:31.489Z,95883.94
2023-04-02T05:16:00.089Z,95882.38
2023-04-02T05:18:27.788Z,95885.63
2023-04-02T05:20:56.052Z,95884.91
2023-04-02T05:23:23.876Z,95882.16
2023-04-02T05:25:50.434Z,95891.59
2023-04-02T05:28:19.069Z,95886.94
2023-04-02T05:30:45.680Z,95890.13
2023-04-02T05:33:12.560Z,95892.34
2023-04-02T05:35:39.397Z,95896.13
2023-04-02T05:38:08.111Z,95895.31
2023-04-02T05:40:35.681Z,95902.56
2023-04-02T05:43:02.195Z,95906.44
2023-04-02T05:45:30.028Z,95899.75
2023-04-02T05:47:56.904Z,95905.66
2023-04-02T05:50:25.815Z,95903.06
2023-04-02T05:52:53.577Z,95901.88
2023-04-02T05:55:20.341Z,95903.56
2023-04-02T05:57:59.079Z,95908.16
2023-04-02T06:00:34.220Z,95900.63
2023-04-02T06:03:01.009Z,95900.00
2023-04-02T06:05:27.562Z,95912.81
2023-04-02T06:07:54.407Z,95914.78
2023-04-02T06:10:21.783Z,95914.63
2023-04-02T06:12:50.336Z,95908.28
2023-04-02T06:15:17.238Z,95910.91
2023-04-02T06:17:43.870Z,95918.69
2023-04-02T06:20:10.753Z,95912.59
2023-04-02T06:22:37.325Z,95913.31
2023-04-02T06:25:03.906Z,95917.88
2023-04-02T06:27:30.512Z,95918.59
2023-04-02T06:29:57.085Z,95924.81
2023-04-02T06:32:23.766Z,95930.22
2023-04-02T06:34:50.324Z,95930.38
2023-04-02T06:37:16.861Z,95935.22
2023-04-02T06:39:43.818Z,95940.53
2023-04-02T06:42:10.845Z,95931.16
2023-04-02T06:44:37.366Z,95932.09
2023-04-02T06:47:03.893Z,95935.38
2023-04-02T06:49:30.421Z,95936.63
2023-04-02T06:51:57.251Z,95946.03
2023-04-02T06:54:24.090Z,95946.66
2023-04-02T06:56:50.893Z,95949.16
2023-04-02T06:59:17.786Z,95949.03
2023-04-02T07:01:45.140Z,95957.63
2023-04-02T07:04:11.993Z,95952.41
2023-04-02T07:06:38.530Z,95953.25
2023-04-02T07:09:11.015Z,95961.56
2023-04-02T07:11:37.870Z,95962.75
2023-04-02T07:14:05.195Z,95960.50
2023-04-02T07:16:34.015Z,95966.91
2023-04-02T07:19:00.588Z,95971.09
2023-04-02T07:21:27.101Z,95967.31
2023-04-02T07:23:55.379Z,95967.69
2023-04-02T07:26:21.970Z,95972.81
2023-04-02T07:28:48.682Z,95981.19
2023-04-02T07:31:15.247Z,95983.84
2023-04-02T07:33:42.255Z,95984.31
2023-04-02T07:36:09.021Z,95984.63
2023-04-02T07:38:38.378Z,95990.19
2023-04-02T07:41:04.960Z,95992.03
2023-04-02T07:43:31.846Z,95994.09
2023-04-02T07:45:58.746Z,95989.94
2023-04-02T07:48:27.469Z,95998.47
2023-04-02T07:50:54.326Z,95998.03
2023-04-02T07:53:24.749Z,96006.22
2023-04-02T07:55:53.620Z,96002.16
2023-04-02T07:58:20.954Z,96007.25
2023-04-02T08:00:51.127Z,96002.22
2023-04-02T08:03:19.351Z,96004.38
2023-04-02T08:05:46.320Z,96006.69
2023-04-02T08:08:12.975Z,96014.66
2023-04-02T08:10:39.643Z,96008.25
2023-04-02T08:13:06.448Z,96014.50
2023-04-02T08:15:36.039Z,96013.91
2023-04-02T08:18:11.603Z,96010.63
2023-04-02T08:20:38.231Z,96013.91
2023-04-02T08:23:07.724Z,96014.59
2023-04-02T08:25:35.405Z,96018.63
2023-04-02T08:28:04.200Z,96020.63
2023-04-02T08:30:31.662Z,96016.66
2023-04-02T08:32:58.542Z,96025.50
2023-04-02T08:35:25.114Z,96021.88
2023-04-02T08:37:51.730Z,96017.88
2023-04-02T08:40:19.076Z,96019.81
2023-04-02T08:42:45.852Z,96019.03
2023-04-02T08:45:38.213Z,96024.13
2023-04-02T08:48:01.557Z,96023.88
2023-04-02T08:50:28.424Z,96033.41
2023-04-02T08:52:59.245Z,96033.38
2023-04-02T08:55:26.117Z,96044.25
2023-04-02T08:57:52.685Z,96039.00
2023-04-02T09:00:20.028Z,96037.59
2023-04-02T09:02:47.378Z,96041.63
2023-04-02T09:05:14.855Z,96046.56
2023-04-02T09:10:22.534Z,96052.69
2023-04-02T09:12:49.232Z,96051.22
2023-04-02T09:15:16.050Z,96055.78
2023-04-02T09:17:54.092Z,96052.66
2023-04-02T09:20:23.193Z,96054.59
2023-04-02T09:22:50.012Z,96057.47
2023-04-02T09:25:18.441Z,96060.47
2023-04-02T09:27:45.245Z,96058.22
2023-04-02T09:30:17.586Z,96059.31
2023-04-02T09:32:44.811Z,96072.59
2023-04-02T09:35:22.441Z,96066.66
2023-04-02T09:37:56.363Z,96062.84
2023-04-02T09:43:16.811Z,96068.97
2023-04-02T09:45:43.372Z,96075.34
2023-04-02T09:48:10.137Z,96080.84
2023-04-02T09:50:37.071Z,96081.06
2023-04-02T09:53:06.387Z,96086.16
2023-04-02T09:55:33.335Z,96086.09
2023-04-02T09:58:01.994Z,96090.94
2023-04-02T10:00:32.594Z,96096.09
2023-04-02T10:02:59.487Z,96094.84
2023-04-02T10:08:05.966Z,96093.97
2023-04-02T10:10:32.559Z,96096.22
2023-04-02T10:12:59.080Z,96099.66
2023-04-02T10:15:25.632Z,96105.41
2023-04-02T10:17:52.577Z,96105.25
2023-04-02T10:20:19.158Z,96104.13
2023-04-02T10:22:45.741Z,96105.78
2023-04-02T10:25:12.376Z,96116.19
2023-04-02T10:27:40.045Z,96111.59
2023-04-02T10:30:06.642Z,96117.56
2023-04-02T10:32:34.014Z,96118.34
2023-04-02T10:35:02.897Z,96121.22
2023-04-02T10:37:31.561Z,96121.22
2023-04-02T10:39:58.430Z,96120.38
2023-04-02T10:42:26.042Z,96126.78
2023-04-02T10:44:55.538Z,96125.94
2023-04-02T10:47:23.172Z,96120.53
2023-04-02T10:49:51.610Z,96126.47
2023-04-02T10:52:20.698Z,96131.66
2023-04-02T10:54:54.668Z,96134.69
2023-04-02T10:57:24.740Z,96133.66
2023-04-02T10:59:51.414Z,96129.34
2023-04-02T11:02:20.886Z,96132.78
2023-04-02T11:04:47.601Z,96135.34
2023-04-02T11:07:15.297Z,96135.75
2023-04-02T11:09:41.940Z,96139.88
2023-04-02T11:12:09.205Z,96133.97
2023-04-02T11:20:33.010Z,96139.03
2023-04-02T11:23:00.406Z,96148.41
2023-04-02T11:25:29.933Z,96141.09
2023-04-02T11:27:56.770Z,96139.19
2023-04-02T11:30:25.085Z,96147.06
2023-04-02T11:32:54.166Z,96149.03
2023-04-02T11:35:20.845Z,96154.00
2023-04-02T11:37:47.630Z,96153.84
2023-04-02T11:40:15.466Z,96157.38
2023-04-02T11:42:42.039Z,96152.88
2023-04-02T11:45:09.623Z,96158.09
2023-04-02T11:47:36.628Z,96159.63
2023-04-02T11:52:54.459Z,96163.09
2023-04-02T11:55:24.341Z,96164.97
2023-04-02T12:00:33.576Z,96170.25
2023-04-02T12:03:00.323Z,96174.75
2023-04-02T12:05:30.768Z,96173.25
2023-04-02T12:08:01.772Z,96173.84
2023-04-02T12:10:28.372Z,96180.78
2023-04-02T12:12:54.945Z,96182.00
2023-04-02T12:15:22.323Z,96181.28
2023-04-02T12:17:49.187Z,96192.59
2023-04-02T12:20:16.008Z,96181.56
2023-04-02T12:22:42.790Z,96182.69
2023-04-02T12:25:09.303Z,96192.03
2023-04-02T12:27:37.992Z,96187.78
2023-04-02T12:30:04.755Z,96192.34
2023-04-02T12:32:31.760Z,96192.81
2023-04-02T12:34:58.454Z,96192.50
2023-04-02T12:37:25.183Z,96189.72
2023-04-02T12:39:51.722Z,96197.31
2023-04-02T12:42:19.453Z,96197.22
2023-04-02T12:44:51.017Z,96193.50
2023-04-02T12:47:17.780Z,96198.63
2023-04-02T12:49:46.254Z,96192.00
2023-04-02T12:52:13.027Z,96191.47
2023-04-02T12:54:41.241Z,96188.13
2023-04-02T12:57:08.166Z,96195.97
2023-04-02T12:59:34.906Z,96189.28
2023-04-02T13:02:06.500Z,96195.69
2023-04-02T13:04:33.470Z,96191.78
2023-04-02T13:07:00.240Z,96197.78
2023-04-02T13:09:28.557Z,96197.69
2023-04-02T13:11:55.641Z,96202.31
2023-04-02T13:14:22.263Z,96195.66
2023-04-02T13:16:49.797Z,96194.97
2023-04-02T13:19:16.634Z,96198.78
2023-04-02T13:21:43.474Z,96195.50
2023-04-02T13:24:12.476Z,96196.34
2023-04-02T13:26:38.962Z,96192.53
2023-04-02T13:29:05.677Z,96191.66
2023-04-02T13:31:34.452Z,96193.72
2023-04-02T13:34:01.090Z,96189.47
2023-04-02T13:36:27.921Z,96196.31
2023-04-02T13:38:54.857Z,96194.16
2023-04-02T13:41:28.610Z,96186.38
2023-04-02T13:43:56.893Z,96194.59
2023-04-02T13:46:23.406Z,96189.91
2023-04-02T13:48:50.961Z,96194.56
2023-04-02T13:51:18.545Z,96191.59
2023-04-02T13:53:46.077Z,96187.94
2023-04-02T13:56:12.588Z,96189.84
2023-04-02T13:58:40.409Z,96189.06
2023-04-02T14:01:08.003Z,96188.91
2023-04-02T14:03:34.824Z,96188.38
2023-04-02T14:06:01.402Z,96198.03
2023-04-02T14:08:28.282Z,96190.44
2023-04-02T14:10:54.774Z,96195.00
2023-04-02T14:13:21.559Z,96193.03
2023-04-02T14:15:51.712Z,96182.78
2023-04-02T14:18:18.295Z,96192.66
2023-04-02T14:20:45.118Z,96198.97
2023-04-02T14:23:11.680Z,96191.38
2023-04-02T14:25:38.472Z,96197.09
2023-04-02T14:28:06.569Z,96201.28
2023-04-02T14:30:35.821Z,96208.06
2023-04-02T14:33:02.880Z,96209.56
2023-04-02T14:35:29.788Z,96208.91
2023-04-02T14:37:58.818Z,96208.22
2023-04-02T14:40:26.212Z,96212.63
2023-04-02T14:42:52.658Z,96205.94
2023-04-02T14:45:19.444Z,96215.28
2023-04-02T14:47:46.025Z,96213.44
2023-04-02T14:50:12.641Z,96210.00
2023-04-02T14:52:41.716Z,96213.44
2023-04-02T14:55:08.413Z,96209.75
2023-04-02T14:57:42.565Z,96218.66
2023-04-02T15:00:13.007Z,96209.47
2023-04-02T15:02:41.598Z,96215.41
2023-04-02T15:05:08.470Z,96216.78
2023-04-02T15:07:37.518Z,96213.00
2023-04-02T15:10:06.549Z,96222.44
2023-04-02T15:15:01.352Z,96233.22
2023-04-02T15:17:27.991Z,96232.78
2023-04-02T15:19:54.771Z,96227.00
2023-04-02T15:22:23.758Z,96225.63
2023-04-02T15:24:50.346Z,96225.94
2023-04-02T15:27:25.065Z,96224.03
2023-04-02T15:29:54.538Z,96231.63
2023-04-02T15:32:22.346Z,96230.97
2023-04-02T15:41:00.014Z,96233.78
2023-04-02T15:43:26.773Z,96226.59
2023-04-02T15:45:56.160Z,96217.09
2023-04-02T15:48:23.084Z,96224.22
2023-04-02T15:53:36.393Z,96222.13
2023-04-02T15:56:03.153Z,96227.63
2023-04-02T15:58:30.136Z,96225.09
2023-04-02T16:01:00.823Z,96226.09
2023-04-02T16:03:29.021Z,96235.22
2023-04-02T16:05:55.819Z,96224.88
2023-04-02T16:08:22.375Z,96231.38
2023-04-02T16:10:49.423Z,96235.50
2023-04-02T16:13:16.291Z,96237.22
2023-04-02T16:15:43.097Z,96230.88
2023-04-02T16:21:26.452Z,96242.66
2023-04-02T16:23:53.260Z,96239.84
2023-04-02T16:26:22.234Z,96242.00
2023-04-02T16:28:49.118Z,96251.25
2023-04-02T16:31:17.135Z,96253.19
2023-04-02T16:33:46.277Z,96250.13
2023-04-02T16:36:14.370Z,96254.19
2023-04-02T16:38:40.947Z,96263.34
2023-04-02T16:41:09.196Z,96263.66
2023-04-02T16:43:38.489Z,96260.50
2023-04-02T16:46:05.349Z,96265.63
2023-04-02T16:51:26.199Z,96281.25
2023-04-02T16:54:01.694Z,96281.47
2023-04-02T16:56:29.027Z,96284.28
2023-04-02T16:58:58.292Z,96280.38
2023-04-02T17:01:24.917Z,96288.19
2023-04-02T17:03:52.378Z,96292.66
2023-04-02T17:06:22.514Z,96292.59
2023-04-02T17:08:49.103Z,96296.38
2023-04-02T17:11:16.538Z,96296.63
2023-04-02T17:13:45.240Z,96304.38
2023-04-02T17:16:11.921Z,96308.56
2023-04-02T17:18:40.452Z,96301.00
2023-04-02T17:21:08.939Z,96305.50
2023-04-02T17:23:53.224Z,96306.59
2023-04-02T17:26:23.309Z,96310.75
2023-04-02T17:28:50.109Z,96316.28
2023-04-02T17:31:17.809Z,96314.53
2023-04-02T17:33:46.852Z,96320.75
2023-04-02T17:36:13.757Z,96316.88
2023-04-02T17:38:40.534Z,96315.78
2023-04-02T17:41:08.681Z,96318.84
2023-04-02T17:43:37.616Z,96316.56
2023-04-02T17:46:04.340Z,96325.88
2023-04-02T17:48:33.340Z,96330.47
2023-04-02T17:51:06.318Z,96328.25
2023-04-02T17:53:33.234Z,96331.94
2023-04-02T17:58:49.867Z,96343.78
2023-04-02T18:01:18.848Z,96338.34
2023-04-02T18:03:46.240Z,96335.38
2023-04-02T18:06:12.849Z,96343.63
2023-04-02T18:08:44.425Z,96344.97
2023-04-02T18:11:13.260Z,96347.75
2023-04-02T18:13:43.668Z,96336.91
2023-04-02T18:16:10.565Z,96345.16
2023-04-02T18:18:37.400Z,96345.72
2023-04-02T18:21:03.964Z,96348.34
2023-04-02T18:23:30.993Z,96353.63
2023-04-02T18:25:57.635Z,96347.41
2023-04-02T18:28:24.492Z,96359.59
2023-04-02T18:30:51.242Z,96359.47
2023-04-02T18:36:13.709Z,96363.34
2023-04-02T18:38:40.298Z,96364.13
2023-04-02T18:41:06.857Z,96364.22
2023-04-02T18:43:35.718Z,96371.63
2023-04-02T18:46:02.665Z,96376.75
2023-04-02T18:48:30.421Z,96382.56
2023-04-02T19:03:54.465Z,96390.34
2023-04-02T19:06:25.247Z,96385.28
2023-04-02T19:08:55.172Z,96392.19
2023-04-02T19:14:21.838Z,96400.66
2023-04-02T19:16:49.567Z,96409.66
2023-04-02T19:19:17.759Z,96413.09
2023-04-02T19:21:44.721Z,96407.81
2023-04-02T19:24:11.880Z,96415.25
2023-04-02T19:26:40.666Z,96411.63
2023-04-02T19:29:07.640Z,96415.28
2023-04-02T19:31:35.996Z,96422.94
2023-04-02T19:37:05.833Z,96410.88
2023-04-02T19:39:34.373Z,96426.59
2023-04-02T19:42:01.268Z,96421.97
2023-04-02T19:44:28.905Z,96429.75
2023-04-02T19:46:55.609Z,96426.91
2023-04-02T19:49:22.584Z,96438.97
2023-04-02T19:54:30.519Z,96444.34
2023-04-02T19:56:57.978Z,96445.19
2023-04-02T19:59:26.810Z,96440.63
2023-04-02T20:01:55.947Z,96438.53
2023-04-02T20:04:22.523Z,96448.59
2023-04-02T20:06:53.881Z,96454.47
2023-04-02T20:09:20.689Z,96454.47
2023-04-02T20:11:47.307Z,96462.97
2023-04-02T20:14:16.277Z,96460.44
2023-04-02T20:16:45.890Z,96449.91
2023-04-02T20:19:12.620Z,96455.56
2023-04-02T20:21:46.710Z,96455.78
2023-04-02T20:24:13.956Z,96460.84
2023-04-02T20:26:40.695Z,96459.91
2023-04-02T20:29:07.594Z,96455.69
2023-04-02T20:31:37.917Z,96457.81
2023-04-02T20:34:04.976Z,96450.44
2023-04-02T20:36:35.979Z,96454.25
2023-04-02T20:39:06.318Z,96469.13
2023-04-02T20:41:35.264Z,96464.75
2023-04-02T20:44:01.840Z,96457.31
2023-04-02T20:46:29.444Z,96464.75
2023-04-02T20:49:05.615Z,96466.44
2023-04-02T20:51:33.870Z,96470.66
2023-04-02T20:54:02.653Z,96472.25
2023-04-02T20:56:36.630Z,96471.97
2023-04-02T20:59:06.344Z,96475.44
2023-04-02T21:01:34.696Z,96479.97
2023-04-02T21:04:03.023Z,96469.72
2023-04-02T21:06:30.621Z,96481.56
2023-04-02T21:08:58.197Z,96468.53
2023-04-02T21:11:27.747Z,96475.63
2023-04-02T21:13:54.715Z,96467.69
2023-04-02T21:16:26.171Z,96475.16
2023-04-02T21:18:56.680Z,96477.97
2023-04-02T21:21:23.210Z,96480.16
2023-04-02T21:23:50.251Z,96474.63
2023-04-02T21:26:19.888Z,96478.16
2023-04-02T21:28:50.100Z,96483.59
2023-04-02T21:31:16.746Z,96478.88
2023-04-02T21:33:45.418Z,96477.16
2023-04-02T21:36:13.011Z,96483.84
2023-04-02T21:38:48.696Z,96484.78
2023-04-02T21:41:16.722Z,96479.38
2023-04-02T21:43:46.849Z,96480.63
2023-04-02T21:46:13.856Z,96476.00
2023-04-02T21:48:44.729Z,96480.91
2023-04-02T21:51:11.344Z,96472.13
2023-04-02T21:56:29.926Z,96476.50
2023-04-02T21:58:57.088Z,96474.28
2023-04-02T22:01:31.059Z,96481.47
2023-04-02T22:03:58.159Z,96482.63
2023-04-02T22:06:27.029Z,96481.38
2023-04-02T22:09:03.823Z,96474.09
2023-04-02T22:11:32.487Z,96477.25
2023-04-02T22:13:59.034Z,96487.03
2023-04-02T22:16:25.855Z,96479.78
2023-04-02T22:18:52.659Z,96482.84
2023-04-02T22:21:19.574Z,96479.63
2023-04-02T22:23:47.233Z,96468.41
2023-04-02T22:26:15.874Z,96473.75
2023-04-02T22:28:42.734Z,96471.19
2023-04-02T22:31:12.351Z,96465.41
2023-04-02T22:33:40.049Z,96463.19
2023-04-02T22:36:08.644Z,96460.72
2023-04-02T22:38:38.298Z,96457.84
2023-04-02T22:41:06.001Z,96461.03
2023-04-02T22:44:05.050Z,96454.88
2023-04-02T22:46:35.215Z,96454.34
2023-04-02T22:49:05.921Z,96451.63
2023-04-02T22:51:34.355Z,96456.03
2023-04-02T22:57:08.425Z,96461.53
2023-04-02T22:59:44.349Z,96465.00
2023-04-02T23:05:00.986Z,96456.16
2023-04-02T23:07:29.373Z,96460.03
2023-04-02T23:09:55.937Z,96458.28
2023-04-02T23:12:23.806Z,96450.78
2023-04-02T23:14:53.522Z,96462.19
2023-04-02T23:17:20.453Z,96458.63
2023-04-02T23:19:47.889Z,96453.31
2023-04-02T23:22:19.358Z,96456.56
2023-04-02T23:24:51.217Z,96453.72
2023-04-02T23:27:25.186Z,96452.56
2023-04-02T23:29:52.885Z,96447.91
2023-04-02T23:32:25.758Z,96450.66
2023-04-02T23:34:52.742Z,96445.22
2023-04-02T23:40:12.668Z,96444.91
2023-04-02T23:42:41.090Z,96454.91
2023-04-02T23:45:11.112Z,96450.28
2023-04-02T23:47:41.495Z,96452.69
2023-04-02T23:50:10.677Z,96451.63
2023-04-02T23:52:44.754Z,96442.97
2023-04-02T23:58:28.359Z,96439.53
